Time;durP1;ratioP1;P1;durP2;ratioP2;P2;SDS_P1;SDS_P2;PMS_P1;PMS_P2;Temp;Humidity;BMP_temperature;BMP_pressure;BME280_temperature;BME280_humidity;BME280_pressure;Samples;Min_cycle;Max_cycle;Signal;HPM_P1;HPM_P2
2022/07/17 00:00:04;;;;;;;4.23;3.13;;;15.30;99.90;;;;;;4973312;28;20218;-87
2022/07/17 00:02:30;;;;;;;3.87;3.57;;;15.20;99.90;;;;;;4993354;28;20466;-86
2022/07/17 00:04:55;;;;;;;4.80;3.50;;;15.20;99.90;;;;;;4968892;28;22925;-86
2022/07/17 00:07:21;;;;;;;3.63;3.30;;;15.20;99.90;;;;;;4974947;28;20187;-88
2022/07/17 00:09:46;;;;;;;10.70;3.77;;;15.10;99.90;;;;;;4974053;28;20187;-88
2022/07/17 00:12:12;;;;;;;5.00;3.30;;;15.10;99.90;;;;;;4994624;28;22080;-88
2022/07/17 00:14:38;;;;;;;4.93;3.83;;;15.10;99.90;;;;;;4989340;28;20185;-88
2022/07/17 00:17:05;;;;;;;4.63;3.80;;;14.70;99.90;;;;;;4981430;28;20194;-88
2022/07/17 00:19:31;;;;;;;5.87;4.07;;;15.10;99.90;;;;;;4978920;28;20221;-88
2022/07/17 00:21:57;;;;;;;4.17;3.50;;;15.20;99.90;;;;;;4979886;28;21488;-88
2022/07/17 00:24:23;;;;;;;4.27;3.80;;;15.20;99.90;;;;;;4975380;28;20437;-89
2022/07/17 00:26:50;;;;;;;9.10;3.50;;;15.10;99.90;;;;;;4970123;28;20183;-89
2022/07/17 00:29:16;;;;;;;5.47;3.60;;;15.00;99.90;;;;;;4976085;28;20562;-87
2022/07/17 00:31:43;;;;;;;4.50;4.07;;;15.00;99.90;;;;;;4976518;28;20214;-90
2022/07/17 00:34:08;;;;;;;4.35;3.95;;;14.90;99.90;;;;;;4976211;28;20916;-89
2022/07/17 00:36:34;;;;;;;3.70;3.07;;;14.90;99.90;;;;;;4991023;28;20188;-87
2022/07/17 00:38:59;;;;;;;5.63;3.83;;;14.90;99.90;;;;;;4972143;28;20214;-89
2022/07/17 00:41:25;;;;;;;4.70;4.00;;;;;;;;;;4987321;28;20175;-88
2022/07/17 00:43:51;;;;;;;3.57;3.27;;;14.80;99.90;;;;;;5007462;28;20199;-88
2022/07/17 00:46:16;;;;;;;5.03;3.87;;;14.80;99.90;;;;;;4976369;28;20453;-89
2022/07/17 00:48:42;;;;;;;5.53;3.80;;;14.70;99.90;;;;;;4971892;28;20488;-89
2022/07/17 00:51:09;;;;;;;4.70;4.30;;;;;;;;;;4993193;28;20270;-88
2022/07/17 00:53:36;;;;;;;4.40;3.72;;;14.60;99.90;;;;;;4990094;28;20282;-89
2022/07/17 00:56:03;;;;;;;3.67;3.38;;;14.60;99.90;;;;;;4973998;28;20262;-87
2022/07/17 00:58:30;;;;;;;3.20;2.90;;;14.60;99.90;;;;;;4988362;28;20683;-88
2022/07/17 01:00:56;;;;;;;8.90;4.55;;;14.60;99.90;;;;;;4970604;28;20466;-88
2022/07/17 01:03:23;;;;;;;3.90;3.43;;;14.60;99.90;;;;;;4976417;28;20219;-88
2022/07/17 01:05:48;;;;;;;5.17;3.90;;;14.50;99.90;;;;;;4971533;28;20438;-88
2022/07/17 01:08:14;;;;;;;5.10;4.33;;;;;;;;;;4992131;28;20450;-89
2022/07/17 01:10:41;;;;;;;4.70;4.20;;;14.50;99.90;;;;;;4980234;28;20680;-88
2022/07/17 01:13:07;;;;;;;5.30;3.97;;;14.40;99.90;;;;;;4981434;28;20549;-88
2022/07/17 01:15:36;;;;;;;4.70;4.23;;;14.30;99.90;;;;;;4972024;28;20195;-88
2022/07/17 01:18:07;;;;;;;4.88;4.30;;;14.20;99.90;;;;;;4982384;28;20326;-87
2022/07/17 01:20:33;;;;;;;7.00;3.70;;;14.20;99.90;;;;;;4991113;28;20186;-88
2022/07/17 01:22:59;;;;;;;4.72;2.83;;;14.10;99.90;;;;;;5000431;28;20488;-89
2022/07/17 01:25:25;;;;;;;4.10;2.93;;;14.30;99.90;;;;;;4995189;28;20254;-87
2022/07/17 01:27:51;;;;;;;4.33;3.77;;;14.60;99.90;;;;;;4990124;28;21281;-88
2022/07/17 01:30:17;;;;;;;5.75;4.10;;;14.70;99.90;;;;;;4979251;28;20209;-88
2022/07/17 01:32:43;;;;;;;4.70;4.30;;;14.80;99.90;;;;;;4995554;28;20318;-87
2022/07/17 01:35:12;;;;;;;6.15;4.03;;;14.60;99.90;;;;;;4978277;28;20297;-86
2022/07/17 01:37:38;;;;;;;5.25;3.67;;;14.30;99.90;;;;;;4999604;28;20195;-88
2022/07/17 01:40:05;;;;;;;9.68;4.05;;;14.20;99.90;;;;;;5006928;28;20175;-87
2022/07/17 01:42:31;;;;;;;4.15;3.75;;;14.20;99.90;;;;;;4994575;28;20219;-86
2022/07/17 01:44:57;;;;;;;6.67;3.87;;;14.10;99.90;;;;;;4984816;28;20286;-88
2022/07/17 01:47:22;;;;;;;3.57;3.27;;;;;;;;;;4978843;28;20448;-88
2022/07/17 01:49:52;;;;;;;4.17;3.77;;;14.00;99.90;;;;;;4978480;28;20438;-87
2022/07/17 01:52:18;;;;;;;3.85;3.55;;;14.00;99.90;;;;;;4978756;28;20469;-88
2022/07/17 01:54:44;;;;;;;6.70;3.88;;;13.90;99.90;;;;;;4977027;28;20278;-88
2022/07/17 01:57:11;;;;;;;5.50;4.10;;;13.90;99.90;;;;;;4970598;28;20194;-89
2022/07/17 01:59:38;;;;;;;3.72;3.40;;;13.80;99.90;;;;;;4978956;28;20183;-89
2022/07/17 02:02:07;;;;;;;7.90;3.90;;;13.70;99.90;;;;;;4977836;28;20183;-88
2022/07/17 02:04:34;;;;;;;4.78;3.20;;;13.80;99.90;;;;;;4981874;28;20190;-88
2022/07/17 02:07:00;;;;;;;4.28;3.80;;;13.70;99.90;;;;;;4978396;28;20178;-88
2022/07/17 02:09:25;;;;;;;4.63;4.23;;;13.70;99.90;;;;;;4981780;28;20183;-87
2022/07/17 02:11:51;;;;;;;4.73;3.43;;;13.60;99.90;;;;;;4988365;28;20195;-88
2022/07/17 02:14:17;;;;;;;3.90;3.50;;;13.60;99.90;;;;;;4996101;28;20191;-87
2022/07/17 02:16:42;;;;;;;3.63;2.80;;;13.50;99.90;;;;;;5019367;28;20191;-87
2022/07/17 02:19:08;;;;;;;4.00;3.60;;;13.50;99.90;;;;;;4985668;28;20632;-87
2022/07/17 02:21:33;;;;;;;3.90;3.47;;;13.50;99.90;;;;;;4983873;28;20191;-88
2022/07/17 02:23:59;;;;;;;3.47;3.07;;;13.50;99.90;;;;;;4979602;28;20218;-87
2022/07/17 02:26:24;;;;;;;4.50;3.23;;;13.50;99.90;;;;;;4980459;28;20202;-87
2022/07/17 02:28:50;;;;;;;9.40;3.40;;;13.50;99.90;;;;;;4979888;28;20299;-88
2022/07/17 02:31:15;;;;;;;4.50;3.40;;;15.10;99.90;;;;;;4992089;28;20856;-88
2022/07/17 02:33:41;;;;;;;13.17;2.97;;;13.40;99.90;;;;;;4977713;28;20217;-87
2022/07/17 02:36:07;;;;;;;4.43;2.80;;;13.40;99.90;;;;;;4992930;28;20198;-87
2022/07/17 02:38:33;;;;;;;6.03;3.37;;;13.40;99.90;;;;;;4982016;28;20276;-88
2022/07/17 02:40:59;;;;;;;6.53;3.35;;;13.30;99.90;;;;;;4980080;28;20202;-88
2022/07/17 02:43:25;;;;;;;3.55;3.25;;;13.20;99.90;;;;;;4977434;28;20226;-87
2022/07/17 02:45:50;;;;;;;2.90;2.60;;;13.10;99.90;;;;;;4977957;28;20191;-87
2022/07/17 02:48:16;;;;;;;3.10;2.50;;;13.10;99.90;;;;;;4990221;28;20190;-87
2022/07/17 02:50:42;;;;;;;6.50;3.43;;;13.00;99.90;;;;;;5004517;28;20198;-88
2022/07/17 02:53:07;;;;;;;3.37;3.10;;;13.00;99.90;;;;;;4987799;28;20211;-87
2022/07/17 02:55:33;;;;;;;3.60;3.30;;;12.90;99.90;;;;;;4989722;28;20290;-87
2022/07/17 02:57:58;;;;;;;3.83;2.63;;;12.90;99.90;;;;;;4993636;28;20187;-88
2022/07/17 03:00:26;;;;;;;6.10;3.60;;;12.80;99.90;;;;;;5007396;28;20322;-87
2022/07/17 03:02:52;;;;;;;3.42;3.13;;;;;;;;;;4984615;28;20217;-87
2022/07/17 03:05:18;;;;;;;4.70;3.30;;;12.60;99.90;;;;;;4982782;28;20188;-88
2022/07/17 03:07:44;;;;;;;5.67;3.07;;;12.60;99.90;;;;;;4979608;28;20599;-88
2022/07/17 03:10:10;;;;;;;12.07;3.55;;;12.60;99.90;;;;;;4986608;28;20186;-87
2022/07/17 03:12:36;;;;;;;4.00;3.22;;;12.50;99.90;;;;;;4986769;28;20233;-87
2022/07/17 03:15:02;;;;;;;3.40;3.10;;;12.50;99.90;;;;;;4988025;28;20189;-87
2022/07/17 03:17:27;;;;;;;6.88;3.03;;;12.50;99.90;;;;;;4978753;28;20194;-89
2022/07/17 03:19:53;;;;;;;3.60;3.30;;;12.50;99.90;;;;;;4978302;28;20190;-88
2022/07/17 03:22:19;;;;;;;5.97;4.10;;;12.50;99.90;;;;;;4978957;28;20203;-88
2022/07/17 03:24:44;;;;;;;4.67;2.97;;;12.50;99.90;;;;;;4980971;28;20251;-88
2022/07/17 03:27:10;;;;;;;5.40;3.60;;;12.50;99.90;;;;;;4982751;28;20223;-88
2022/07/17 03:29:35;;;;;;;3.70;3.40;;;12.40;99.90;;;;;;4983866;28;20206;-87
2022/07/17 03:32:01;;;;;;;3.63;3.30;;;12.40;99.90;;;;;;4991393;28;20213;-87
2022/07/17 03:34:27;;;;;;;3.90;3.50;;;9.80;99.90;;;;;;4985599;28;20195;-87
2022/07/17 03:36:52;;;;;;;4.20;2.97;;;12.40;99.90;;;;;;4983320;28;20908;-87
2022/07/17 03:39:18;;;;;;;3.60;3.30;;;;;;;;;;4979680;28;20403;-87
2022/07/17 03:41:44;;;;;;;6.50;2.70;;;12.40;99.90;;;;;;4980998;28;20222;-87
2022/07/17 03:44:09;;;;;;;4.03;3.63;;;12.40;99.90;;;;;;4987442;28;20612;-86
2022/07/17 03:46:35;;;;;;;4.90;3.37;;;12.50;99.90;;;;;;4990260;28;20201;-87
2022/07/17 03:49:01;;;;;;;5.10;3.00;;;12.40;99.90;;;;;;4997162;28;20195;-88
2022/07/17 03:51:26;;;;;;;5.70;3.00;;;12.50;99.90;;;;;;4982840;28;20726;-88
2022/07/17 03:53:52;;;;;;;3.77;3.30;;;12.60;99.90;;;;;;4981400;28;20306;-87
2022/07/17 03:56:18;;;;;;;5.40;4.10;;;12.70;99.90;;;;;;4982034;28;20595;-88
2022/07/17 03:58:44;;;;;;;12.93;3.45;;;;;;;;;;4981869;28;20191;-87
2022/07/17 04:01:11;;;;;;;2.83;2.60;;;;;;;;;;4983025;28;20191;-87
2022/07/17 04:03:36;;;;;;;4.93;3.10;;;12.90;99.90;;;;;;4981319;28;20898;-87
2022/07/17 04:06:02;;;;;;;3.67;2.50;;;12.80;99.90;;;;;;4982962;28;20206;-87
2022/07/17 04:08:28;;;;;;;3.87;2.87;;;13.10;99.90;;;;;;4979821;28;20183;-88
2022/07/17 04:10:53;;;;;;;3.80;3.30;;;13.10;99.90;;;;;;4993356;28;21025;-87
2022/07/17 04:13:19;;;;;;;4.03;3.20;;;13.20;99.90;;;;;;4989949;28;20214;-88
2022/07/17 04:15:59;;;;;;;3.70;3.10;;;13.00;99.90;;;;;;4985262;28;20889;-89
2022/07/17 04:18:28;;;;;;;5.05;3.17;;;13.00;99.90;;;;;;4974460;28;20183;-87
2022/07/17 04:20:56;;;;;;;4.90;3.05;;;14.90;99.90;;;;;;4986903;22;20245;-90
2022/07/17 04:23:22;;;;;;;3.80;2.70;;;13.50;99.90;;;;;;4968130;28;20214;-88
2022/07/17 04:25:47;;;;;;;3.17;2.83;;;13.60;99.90;;;;;;4991834;28;20171;-89
2022/07/17 04:28:13;;;;;;;2.80;2.60;;;13.90;99.90;;;;;;4970168;28;20187;-88
2022/07/17 04:30:39;;;;;;;2.78;2.10;;;15.30;99.90;;;;;;4975135;28;20334;-89
2022/07/17 04:33:05;;;;;;;4.00;2.60;;;17.20;99.90;;;;;;4994011;28;20197;-89
2022/07/17 04:35:31;;;;;;;4.10;2.03;;;19.40;99.90;;;;;;4977681;28;20799;-89
2022/07/17 04:37:57;;;;;;;8.07;2.80;;;21.50;99.90;;;;;;4977002;28;20286;-87
2022/07/17 04:40:23;;;;;;;3.47;2.23;;;23.20;98.60;;;;;;4981277;28;20234;-89
2022/07/17 04:42:48;;;;;;;2.33;2.13;;;24.80;92.10;;;;;;4971624;28;20207;-88
2022/07/17 04:45:14;;;;;;;3.03;2.10;;;26.50;82.40;;;;;;4989839;28;20492;-89
2022/07/17 04:47:40;;;;;;;5.23;2.60;;;27.20;74.50;;;;;;4987870;28;20184;-87
2022/07/17 04:50:06;;;;;;;2.80;2.50;;;28.40;72.20;;;;;;4988305;28;20637;-87
2022/07/17 04:52:32;;;;;;;6.87;2.63;;;30.10;66.10;;;;;;4981641;28;20443;-88
2022/07/17 04:54:57;;;;;;;4.23;2.20;;;31.20;57.80;;;;;;4976314;28;20479;-87
2022/07/17 04:57:23;;;;;;;4.47;2.50;;;31.40;53.00;;;;;;4969340;28;20183;-86
2022/07/17 04:59:49;;;;;;;2.87;2.40;;;;;;;;;;4989991;28;20270;-86
2022/07/17 05:02:14;;;;;;;3.80;2.20;;;33.10;46.50;;;;;;4978750;28;21199;-86
2022/07/17 05:04:40;;;;;;;3.93;2.70;;;33.70;44.50;;;;;;4987245;28;20435;-88
2022/07/17 05:07:05;;;;;;;2.97;2.50;;;35.70;41.40;;;;;;4975984;28;20210;-89
2022/07/17 05:09:31;;;;;;;4.33;3.30;;;35.70;41.80;;;;;;4964748;28;21838;-88
2022/07/17 05:11:56;;;;;;;5.80;3.73;;;36.80;40.50;;;;;;4973126;28;20203;-89
2022/07/17 05:14:22;;;;;;;8.07;5.23;;;;;;;;;;4972741;28;20242;-90
2022/07/17 05:16:48;;;;;;;5.53;5.13;;;;;;;;;;4993050;28;20196;-89
2022/07/17 05:19:14;;;;;;;5.93;5.53;;;;;;;;;;4973092;28;20440;-89
2022/07/17 05:21:40;;;;;;;7.00;6.30;;;39.80;32.80;;;;;;4975580;28;20473;-89
2022/07/17 05:24:05;;;;;;;6.53;6.03;;;39.10;31.70;;;;;;4971824;28;20469;-89
2022/07/17 05:26:31;;;;;;;7.70;7.30;;;39.20;31.40;;;;;;4967447;28;20207;-89
2022/07/17 05:28:57;;;;;;;7.50;7.10;;;;;;;;;;4969574;28;21971;-89
2022/07/17 05:31:23;;;;;;;8.17;7.67;;;;;;;;;;4972929;28;20198;-89
2022/07/17 05:33:48;;;;;;;8.83;8.33;;;41.60;28.40;;;;;;4976369;28;20959;-89
2022/07/17 05:36:14;;;;;;;9.70;9.10;;;41.90;28.80;;;;;;4977079;28;20818;-89
2022/07/17 05:38:39;;;;;;;9.63;8.93;;;42.40;27.80;;;;;;4977300;28;20879;-89
2022/07/17 05:41:05;;;;;;;9.53;9.03;;;42.30;27.50;;;;;;4977769;28;20208;-90
2022/07/17 05:43:30;;;;;;;11.13;10.40;;;42.70;27.40;;;;;;4988342;28;20319;-89
2022/07/17 05:45:57;;;;;;;11.00;10.40;;;42.60;26.50;;;;;;4979995;28;20195;-90
2022/07/17 05:48:23;;;;;;;10.00;9.10;;;;;;;;;;4980876;28;20831;-89
2022/07/17 05:50:50;;;;;;;10.33;9.73;;;42.10;26.30;;;;;;4965563;28;20475;-90
2022/07/17 05:53:16;;;;;;;11.33;10.67;;;;;;;;;;4978915;28;20444;-89
2022/07/17 05:55:42;;;;;;;10.37;9.83;;;41.30;26.10;;;;;;4986721;28;20444;-89
2022/07/17 05:58:08;;;;;;;10.40;9.53;;;;;;;;;;4963729;28;20456;-89
2022/07/17 06:00:34;;;;;;;8.70;8.30;;;38.00;27.70;;;;;;4981292;28;20464;-89
2022/07/17 06:03:00;;;;;;;9.43;8.50;;;36.70;29.80;;;;;;4969604;28;20461;-89
2022/07/17 06:05:26;;;;;;;9.13;8.53;;;38.60;29.00;;;;;;4969183;28;20700;-89
2022/07/17 06:07:53;;;;;;;9.00;8.40;;;39.30;28.30;;;;;;4977825;28;20813;-90
2022/07/17 06:10:19;;;;;;;10.47;9.43;;;40.50;27.80;;;;;;4997340;28;21439;-89
2022/07/17 06:12:45;;;;;;;10.17;9.23;;;40.30;27.00;;;;;;4975255;28;20970;-89
2022/07/17 06:15:11;;;;;;;8.93;8.43;;;40.50;27.70;;;;;;4985411;28;20440;-89
2022/07/17 06:17:36;;;;;;;9.20;8.63;;;40.50;27.60;;;;;;4980662;28;20187;-89
2022/07/17 06:20:04;;;;;;;9.23;8.80;;;40.70;27.50;;;;;;4995305;28;20977;-89
2022/07/17 06:22:30;;;;;;;9.93;9.33;;;;;;;;;;4997857;28;20211;-89
2022/07/17 06:24:55;;;;;;;11.47;9.27;;;41.10;27.10;;;;;;5001336;28;20429;-89
2022/07/17 06:27:21;;;;;;;10.80;9.90;;;;;;;;;;4979917;28;20773;-89
2022/07/17 06:29:47;;;;;;;11.77;10.60;;;;;;;;;;4980209;28;20182;-89
2022/07/17 06:32:13;;;;;;;10.80;9.97;;;42.50;26.00;;;;;;4977763;28;20487;-89
2022/07/17 06:34:39;;;;;;;11.07;10.40;;;;;;;;;;4978900;28;20454;-90
2022/07/17 06:37:06;;;;;;;11.30;10.70;;;;;;;;;;4982342;28;20432;-89
2022/07/17 06:39:32;;;;;;;11.47;10.83;;;;;;;;;;4982650;28;21030;-89
2022/07/17 06:41:58;;;;;;;11.27;10.57;;;41.90;26.30;;;;;;4991638;28;20488;-90
2022/07/17 06:44:23;;;;;;;11.80;11.10;;;;;;;;;;4974088;28;20493;-89
2022/07/17 06:46:49;;;;;;;12.57;11.43;;;42.80;25.80;;;;;;4994222;28;20278;-89
2022/07/17 06:49:14;;;;;;;12.97;12.10;;;43.50;25.60;;;;;;4989358;28;20182;-89
2022/07/17 06:51:40;;;;;;;14.27;13.33;;;43.70;25.20;;;;;;4989502;28;20199;-89
2022/07/17 06:54:06;;;;;;;13.70;13.00;;;42.50;24.80;;;;;;4982338;28;20187;-90
2022/07/17 06:56:31;;;;;;;12.93;12.33;;;42.60;25.70;;;;;;4969377;28;20202;-91
2022/07/17 06:58:57;;;;;;;12.40;11.70;;;42.90;25.50;;;;;;4990591;28;20193;-90
2022/07/17 07:01:23;;;;;;;12.17;11.57;;;;;;;;;;4977461;28;20211;-90
2022/07/17 07:03:49;;;;;;;12.30;11.50;;;;;;;;;;4993470;28;21054;-90
2022/07/17 07:06:15;;;;;;;12.57;11.90;;;;;;;;;;4980042;28;20441;-90
2022/07/17 07:08:41;;;;;;;13.40;12.80;;;;;;;;;;4979880;28;20441;-90
2022/07/17 07:11:07;;;;;;;13.50;12.80;;;;;;;;;;4984334;28;20465;-90
2022/07/17 07:13:33;;;;;;;12.20;11.50;;;;;;;;;;4989770;28;20449;-90
2022/07/17 07:15:59;;;;;;;13.03;12.53;;;42.70;24.80;;;;;;4977320;28;20437;-91
2022/07/17 07:18:25;;;;;;;13.50;12.80;;;41.40;25.40;;;;;;4977600;28;20531;-90
2022/07/17 07:20:50;;;;;;;13.50;12.97;;;41.00;26.10;;;;;;4979093;28;20465;-91
2022/07/17 07:23:16;;;;;;;13.57;12.87;;;;;;;;;;4978129;28;20547;-92
2022/07/17 07:25:44;;;;;;;14.13;13.33;;;;;;;;;;4978404;28;20400;-91
2022/07/17 07:28:09;;;;;;;13.60;13.00;;;42.30;24.50;;;;;;4974225;28;20522;-92
2022/07/17 07:30:35;;;;;;;15.83;14.73;;;;;;;;;;4993163;28;21077;-89
2022/07/17 07:33:01;;;;;;;14.07;13.47;;;;;;;;;;4977320;28;20190;-90
2022/07/17 07:35:28;;;;;;;14.27;13.37;;;;;;;;;;4971356;28;20437;-90
2022/07/17 07:37:54;;;;;;;16.30;15.20;;;;;;;;;;4984215;28;20444;-90
2022/07/17 07:40:20;;;;;;;13.73;13.13;;;;;;;;;;4969712;28;20458;-90
2022/07/17 07:42:46;;;;;;;15.47;14.47;;;44.60;23.60;;;;;;4971454;28;20465;-90
2022/07/17 07:45:11;;;;;;;13.90;13.20;;;44.90;24.20;;;;;;4971490;28;22559;-89
2022/07/17 07:47:42;;;;;;;16.33;13.80;;;44.10;24.10;;;;;;4966560;28;20221;-89
2022/07/17 07:50:08;;;;;;;16.30;15.20;;;44.10;24.70;;;;;;4968509;28;20233;-91
2022/07/17 07:52:33;;;;;;;12.20;11.53;;;;;;;;;;4991882;28;20844;-90
2022/07/17 07:54:59;;;;;;;17.67;16.87;;;45.70;23.10;;;;;;4979321;28;20442;-90
2022/07/17 07:57:25;;;;;;;16.63;15.83;;;;;;;;;;4961226;28;20175;-90
2022/07/17 07:59:51;;;;;;;13.83;13.03;;;;;;;;;;4980171;28;20197;-90
2022/07/17 08:02:17;;;;;;;13.80;13.10;;;;;;;;;;4959445;28;20433;-90
2022/07/17 08:04:43;;;;;;;15.00;14.20;;;;;;;;;;4985429;28;20485;-89
2022/07/17 08:07:09;;;;;;;14.30;13.60;;;;;;;;;;4956721;28;20507;-90
2022/07/17 08:09:34;;;;;;;15.20;14.40;;;43.30;23.10;;;;;;4973950;28;20512;-90
2022/07/17 08:12:00;;;;;;;14.93;13.97;;;42.50;23.70;;;;;;4955591;28;20192;-90
2022/07/17 08:14:25;;;;;;;12.30;11.73;;;42.00;24.40;;;;;;4978428;28;20926;-89
2022/07/17 08:16:51;;;;;;;11.93;11.43;;;41.20;24.80;;;;;;4972606;28;20200;-90
2022/07/17 08:19:17;;;;;;;11.67;10.97;;;40.10;26.00;;;;;;4970304;28;22132;-88
2022/07/17 08:21:43;;;;;;;11.00;10.30;;;39.00;25.80;;;;;;4954683;28;20254;-89
2022/07/17 08:24:08;;;;;;;11.37;10.80;;;39.90;25.80;;;;;;4986416;28;21123;-90
2022/07/17 08:26:34;;;;;;;10.90;10.40;;;40.90;25.40;;;;;;4977724;28;20206;-90
2022/07/17 08:29:00;;;;;;;11.60;11.00;;;;;;;;;;4973482;28;20278;-89
2022/07/17 08:31:26;;;;;;;12.17;11.60;;;;;;;;;;4975160;28;20205;-89
2022/07/17 08:33:52;;;;;;;12.87;12.27;;;;;;;;;;4967609;28;21207;-90
2022/07/17 08:36:17;;;;;;;12.43;11.83;;;43.10;23.40;;;;;;4962894;28;20449;-88
2022/07/17 08:38:43;;;;;;;14.50;13.80;;;43.10;23.70;;;;;;4968071;28;20264;-88
2022/07/17 08:41:10;;;;;;;15.50;14.80;;;42.50;24.30;;;;;;4969582;28;21919;-89
2022/07/17 08:43:36;;;;;;;14.13;13.33;;;;;;;;;;4980134;28;20203;-89
2022/07/17 08:46:02;;;;;;;13.53;12.83;;;43.20;24.30;;;;;;4960762;28;20997;-88
2022/07/17 08:48:28;;;;;;;8.90;8.30;;;;;;;;;;4961533;28;20429;-91
2022/07/17 08:50:55;;;;;;;10.50;10.00;;;;;;;;;;4953016;28;20629;-90
2022/07/17 08:53:21;;;;;;;13.07;12.37;;;43.20;23.40;;;;;;4969459;28;20475;-89
2022/07/17 08:55:48;;;;;;;13.60;12.80;;;;;;;;;;4968003;28;20452;-89
2022/07/17 08:58:17;;;;;;;12.47;11.67;;;43.10;23.60;;;;;;4962470;28;20848;-90
2022/07/17 09:00:43;;;;;;;5.83;5.43;;;43.40;23.30;;;;;;4964000;28;20454;-89
2022/07/17 09:03:09;;;;;;;6.53;6.23;;;42.70;23.70;;;;;;4968890;28;20453;-90
2022/07/17 09:05:37;;;;;;;14.03;13.10;;;41.10;24.00;;;;;;4967040;28;20445;-88
2022/07/17 09:08:05;;;;;;;14.60;14.00;;;40.70;24.30;;;;;;4968099;28;22461;-90
2022/07/17 09:10:39;;;;;;;13.70;13.10;;;40.70;24.70;;;;;;4964412;28;20511;-88
2022/07/17 09:13:17;;;;;;;11.67;10.97;;;38.80;25.50;;;;;;4965229;28;20449;-90
2022/07/17 09:15:43;;;;;;;12.77;11.70;;;38.00;26.10;;;;;;4964346;28;20438;-90
2022/07/17 09:18:09;;;;;;;11.73;11.23;;;39.20;26.30;;;;;;4965984;28;22130;-90
2022/07/17 09:20:43;;;;;;;11.20;10.70;;;40.80;25.90;;;;;;4970161;28;20544;-90
2022/07/17 09:23:08;;;;;;;13.03;12.23;;;41.50;25.70;;;;;;4968461;28;20230;-91
2022/07/17 09:25:43;;;;;;;13.37;12.77;;;42.00;24.60;;;;;;4966968;28;20553;-89
2022/07/17 09:28:10;;;;;;;13.27;12.47;;;42.30;24.10;;;;;;4969487;28;20186;-90
2022/07/17 09:30:39;;;;;;;13.23;12.73;;;42.20;23.30;;;;;;4969664;28;20457;-89
2022/07/17 09:33:07;;;;;;;14.10;13.50;;;38.40;24.10;;;;;;4992517;28;20469;-90
2022/07/17 09:35:32;;;;;;;12.40;11.27;;;38.00;24.40;;;;;;4968964;28;20441;-91
2022/07/17 09:37:58;;;;;;;12.20;11.53;;;39.60;25.70;;;;;;4967120;28;20442;-89
2022/07/17 09:43:15;;;;;;;11.10;10.50;;;39.70;24.80;;;;;;4948691;28;20215;-90
2022/07/17 09:45:42;;;;;;;11.33;10.77;;;39.40;25.30;;;;;;4971131;28;20430;-89
2022/07/17 09:48:09;;;;;;;12.33;11.43;;;38.00;24.90;;;;;;4972953;28;20215;-90
2022/07/17 09:50:35;;;;;;;12.07;11.37;;;;;;;;;;4990673;28;20472;-92
2022/07/17 09:53:02;;;;;;;11.73;10.93;;;38.30;24.80;;;;;;4978827;28;20471;-89
2022/07/17 09:55:30;;;;;;;11.40;10.90;;;38.30;25.30;;;;;;4970726;28;20523;-89
2022/07/17 09:57:58;;;;;;;12.23;11.17;;;39.00;26.00;;;;;;4959667;28;20480;-89
2022/07/17 10:00:27;;;;;;;11.10;10.30;;;39.10;24.70;;;;;;4966525;28;20483;-89
2022/07/17 10:02:53;;;;;;;11.90;11.20;;;39.80;24.60;;;;;;4977729;28;20564;-88
2022/07/17 10:05:18;;;;;;;12.07;11.37;;;40.00;24.60;;;;;;4973538;28;20444;-89
2022/07/17 10:07:45;;;;;;;12.53;11.90;;;39.00;24.00;;;;;;4974019;28;20432;-89
2022/07/17 10:10:12;;;;;;;12.33;11.73;;;37.80;24.20;;;;;;4967079;28;20198;-89
2022/07/17 10:12:39;;;;;;;12.33;11.73;;;37.20;24.30;;;;;;4985636;28;20464;-88
2022/07/17 10:15:07;;;;;;;11.13;10.63;;;36.10;24.50;;;;;;4962702;28;20434;-89
2022/07/17 10:17:33;;;;;;;12.27;11.33;;;36.30;25.70;;;;;;4967996;28;20559;-88
2022/07/17 10:19:59;;;;;;;11.90;11.10;;;36.40;25.20;;;;;;4971790;28;20465;-88
2022/07/17 10:22:26;;;;;;;11.70;11.20;;;36.80;25.40;;;;;;4958135;28;20309;-87
2022/07/17 10:24:56;;;;;;;11.17;10.60;;;36.50;25.60;;;;;;4983580;28;21230;-89
2022/07/17 10:27:29;;;;;;;10.00;9.60;;;36.40;25.40;;;;;;4965370;28;20939;-88
2022/07/17 10:30:05;;;;;;;11.57;10.87;;;39.10;24.70;;;;;;4992841;28;20474;-89
2022/07/17 10:32:33;;;;;;;10.90;10.40;;;38.70;25.00;;;;;;4969084;28;21234;-90
2022/07/17 10:35:00;;;;;;;12.17;11.23;;;38.70;24.90;;;;;;4973028;28;20440;-88
2022/07/17 10:37:35;;;;;;;11.60;11.20;;;37.90;25.50;;;;;;4969380;28;20537;-87
2022/07/17 10:40:06;;;;;;;10.80;10.30;;;37.10;26.20;;;;;;4980859;28;20466;-88
2022/07/17 10:42:58;;;;;;;11.27;10.47;;;35.00;27.60;;;;;;4973021;28;20463;-87
2022/07/17 10:45:44;;;;;;;8.57;8.00;;;33.10;28.70;;;;;;4982023;28;20691;-88
2022/07/17 10:48:14;;;;;;;7.50;7.10;;;31.30;30.40;;;;;;4989095;28;20969;-90
2022/07/17 10:50:48;;;;;;;5.83;5.03;;;30.50;31.00;;;;;;4988946;28;20446;-87
2022/07/17 10:53:20;;;;;;;3.50;2.00;;;30.10;32.20;;;;;;4971688;28;20493;-87
2022/07/17 10:55:48;;;;;;;2.90;2.03;;;29.60;32.20;;;;;;4991691;28;20440;-87
2022/07/17 10:58:24;;;;;;;2.97;1.90;;;29.20;33.40;;;;;;4980539;28;20841;-88
2022/07/17 11:01:14;;;;;;;2.60;2.10;;;28.50;32.50;;;;;;4982542;28;20623;-88
2022/07/17 11:03:54;;;;;;;4.43;2.40;;;28.20;34.50;;;;;;5000018;28;20492;-88
2022/07/17 11:06:21;;;;;;;2.07;1.87;;;28.20;35.70;;;;;;4985437;28;20443;-88
2022/07/17 11:09:06;;;;;;;7.43;2.83;;;28.60;35.00;;;;;;4977882;28;20533;-88
2022/07/17 11:11:50;;;;;;;3.87;2.03;;;28.80;33.80;;;;;;4998546;28;20452;-88
2022/07/17 11:14:23;;;;;;;3.10;1.87;;;28.80;34.30;;;;;;4983708;28;20842;-87
2022/07/17 11:17:01;;;;;;;3.30;2.23;;;29.00;34.90;;;;;;4974482;28;20438;-89
2022/07/17 11:19:35;;;;;;;2.63;1.93;;;29.20;33.90;;;;;;4965457;28;20521;-88
2022/07/17 11:22:06;;;;;;;3.20;2.20;;;29.10;33.80;;;;;;4962956;28;20472;-87
2022/07/17 11:24:39;;;;;;;1.93;1.57;;;28.70;34.10;;;;;;4975419;28;20473;-89
2022/07/17 11:27:05;;;;;;;2.93;2.07;;;28.10;35.20;;;;;;4963752;28;20446;-88
2022/07/17 11:29:40;;;;;;;3.53;1.80;;;28.20;35.50;;;;;;4964396;28;20439;-88
2022/07/17 11:32:06;;;;;;;3.80;2.07;;;28.40;36.10;;;;;;4987518;28;21206;-89
2022/07/17 11:34:32;;;;;;;2.20;2.00;;;28.60;34.50;;;;;;4983124;28;21015;-89
2022/07/17 11:37:02;;;;;;;1.93;1.73;;;28.80;33.60;;;;;;4979521;28;20441;-88
2022/07/17 11:39:39;;;;;;;3.13;1.73;;;28.70;34.20;;;;;;4984261;28;20222;-88
2022/07/17 11:42:08;;;;;;;2.37;1.50;;;28.60;34.00;;;;;;4995146;28;20442;-87
2022/07/17 11:44:34;;;;;;;2.07;1.87;;;28.60;34.80;;;;;;4983905;28;20465;-87
2022/07/17 11:47:00;;;;;;;6.43;2.47;;;28.80;34.50;;;;;;4980072;28;20439;-89
2022/07/17 11:49:27;;;;;;;3.40;1.70;;;28.80;33.40;;;;;;4994880;28;20186;-87
2022/07/17 11:51:56;;;;;;;2.60;2.40;;;30.40;34.10;;;;;;4983767;28;21499;-89
2022/07/17 11:54:22;;;;;;;3.10;1.70;;;28.90;33.20;;;;;;4996818;28;20442;-88
2022/07/17 11:56:54;;;;;;;3.57;1.90;;;29.00;33.00;;;;;;5036222;22;20491;-84
2022/07/17 11:59:31;;;;;;;2.30;1.90;;;29.10;33.30;;;;;;5009153;28;20496;-84
2022/07/17 12:02:06;;;;;;;4.77;2.00;;;28.70;32.30;;;;;;4998189;28;20434;-85
2022/07/17 12:04:31;;;;;;;4.33;2.00;;;28.60;33.80;;;;;;5001478;28;20895;-85
2022/07/17 12:07:02;;;;;;;1.70;1.60;;;28.70;33.00;;;;;;5013160;28;20497;-84
2022/07/17 12:09:33;;;;;;;2.90;2.37;;;28.70;33.30;;;;;;5023952;28;20681;-84
2022/07/17 12:11:59;;;;;;;3.10;2.17;;;28.50;33.10;;;;;;5018837;28;20437;-85
2022/07/17 12:14:24;;;;;;;3.00;2.13;;;28.40;32.90;;;;;;5022186;28;20463;-85
2022/07/17 12:16:50;;;;;;;5.40;1.90;;;28.50;32.70;;;;;;5018584;28;20191;-84
2022/07/17 12:19:18;;;;;;;2.30;1.90;;;28.90;31.80;;;;;;5016148;28;20559;-83
2022/07/17 12:22:04;;;;;;;2.80;1.80;;;29.00;33.30;;;;;;5018408;28;20521;-83
2022/07/17 12:24:32;;;;;;;3.60;1.90;;;30.10;32.90;;;;;;5020129;28;20841;-83
2022/07/17 12:27:03;;;;;;;6.10;2.20;;;29.20;32.20;;;;;;5025929;28;20454;-84
2022/07/17 12:29:32;;;;;;;1.90;1.80;;;29.40;32.60;;;;;;5013013;28;20418;-84
2022/07/17 12:32:17;;;;;;;2.30;2.00;;;29.30;30.80;;;;;;5019300;28;20902;-84
2022/07/17 12:34:48;;;;;;;2.10;1.70;;;29.20;31.60;;;;;;5013852;28;20528;-84
2022/07/17 12:37:19;;;;;;;1.60;1.50;;;29.30;31.60;;;;;;5017161;28;20461;-85
2022/07/17 12:39:45;;;;;;;1.83;1.60;;;29.40;30.80;;;;;;5018600;28;20496;-83
2022/07/17 12:42:11;;;;;;;4.00;1.93;;;29.20;30.40;;;;;;5014924;28;20478;-85
2022/07/17 12:44:38;;;;;;;3.20;2.00;;;29.10;31.30;;;;;;5017829;28;20568;-86
2022/07/17 12:47:04;;;;;;;2.17;1.83;;;29.20;32.00;;;;;;5014707;28;20447;-83
2022/07/17 12:49:29;;;;;;;5.37;1.90;;;29.50;30.40;;;;;;5027933;28;20433;-83
2022/07/17 12:51:55;;;;;;;6.00;2.10;;;29.50;31.80;;;;;;5010925;28;20397;-83
2022/07/17 12:54:21;;;;;;;1.97;1.87;;;29.10;29.80;;;;;;5017630;28;20536;-84
2022/07/17 12:56:47;;;;;;;3.27;1.97;;;28.90;31.00;;;;;;5033401;28;20521;-83